createdAt,value
2023-03-22T00:02:01.922Z,15.30
2023-03-22T00:04:32.388Z,15.02
2023-03-22T00:07:02.777Z,11.88
2023-03-22T00:09:33.484Z,9.70
2023-03-22T00:12:05.640Z,9.05
2023-03-22T00:14:36.875Z,8.93
2023-03-22T00:17:07.309Z,7.93
2023-03-22T00:19:38.137Z,7.80
2023-03-22T00:22:09.349Z,7.18
2023-03-22T00:24:39.947Z,7.90
2023-03-22T00:27:11.965Z,7.60
2023-03-22T00:29:42.366Z,7.40
2023-03-22T00:32:12.800Z,7.47
2023-03-22T00:34:43.182Z,6.90
2023-03-22T00:37:13.602Z,6.90
2023-03-22T00:39:43.980Z,6.25
2023-03-22T00:42:16.273Z,6.28
2023-03-22T00:44:46.660Z,5.60
2023-03-22T00:47:17.133Z,5.28
2023-03-22T00:49:47.593Z,5.55
2023-03-22T00:52:18.124Z,6.35
2023-03-22T00:54:48.657Z,5.78
2023-03-22T00:57:21.393Z,5.63
2023-03-22T00:59:53.811Z,5.72
2023-03-22T01:02:30.439Z,6.05
2023-03-22T01:05:00.775Z,6.28
2023-03-22T01:07:31.329Z,6.03
2023-03-22T01:10:02.010Z,6.47
2023-03-22T01:12:34.259Z,5.55
2023-03-22T01:15:04.761Z,5.80
2023-03-22T01:17:35.496Z,5.72
2023-03-22T01:20:07.809Z,6.00
2023-03-22T01:22:38.318Z,6.18
2023-03-22T01:25:09.568Z,6.25
2023-03-22T01:27:41.663Z,6.15
2023-03-22T01:30:13.516Z,6.28
2023-03-22T01:32:43.960Z,5.63
2023-03-22T01:35:14.527Z,5.32
2023-03-22T01:37:45.729Z,5.72
2023-03-22T01:40:17.594Z,6.90
2023-03-22T01:42:49.647Z,6.60
2023-03-22T01:45:42.713Z,6.22
2023-03-22T01:48:26.963Z,6.15
2023-03-22T01:51:05.315Z,7.13
2023-03-22T01:53:39.603Z,6.63
2023-03-22T01:56:10.845Z,6.50
2023-03-22T01:58:44.015Z,6.85
2023-03-22T02:01:14.740Z,6.68
2023-03-22T02:03:51.087Z,6.95
2023-03-22T02:06:22.409Z,7.57
2023-03-22T02:08:59.016Z,7.50
2023-03-22T02:11:34.541Z,8.98
2023-03-22T02:14:24.828Z,7.88
2023-03-22T02:17:07.389Z,9.10
2023-03-22T02:20:21.660Z,8.60
2023-03-22T02:23:36.214Z,8.07
2023-03-22T02:26:40.289Z,8.52
2023-03-22T02:29:20.125Z,8.48
2023-03-22T02:32:06.061Z,8.90
2023-03-22T02:34:56.311Z,8.90
2023-03-22T02:37:54.521Z,8.73
2023-03-22T02:40:30.655Z,9.27
2023-03-22T02:43:06.210Z,7.97
2023-03-22T02:45:44.143Z,8.65
2023-03-22T02:48:19.747Z,7.75
2023-03-22T02:50:56.345Z,8.48
2023-03-22T02:53:32.854Z,9.10
2023-03-22T02:56:06.923Z,8.18
2023-03-22T02:58:46.732Z,7.45
2023-03-22T03:01:22.668Z,9.52
2023-03-22T03:03:55.927Z,9.68
2023-03-22T03:06:29.654Z,9.52
2023-03-22T03:09:03.492Z,9.82
2023-03-22T03:11:35.571Z,9.65
2023-03-22T03:14:05.959Z,9.15
2023-03-22T03:16:37.420Z,8.70
2023-03-22T03:19:17.158Z,8.18
2023-03-22T03:24:30.386Z,7.60
2023-03-22T03:27:07.425Z,8.70
2023-03-22T03:29:43.582Z,7.95
2023-03-22T03:32:22.080Z,7.90
2023-03-22T03:34:58.717Z,7.88
2023-03-22T03:37:33.545Z,7.55
2023-03-22T03:40:11.823Z,7.40
2023-03-22T03:42:50.469Z,7.82
2023-03-22T03:45:22.930Z,7.60
2023-03-22T03:47:57.943Z,8.57
2023-03-22T03:50:29.697Z,8.20
2023-03-22T03:53:00.593Z,8.68
2023-03-22T03:55:31.767Z,8.45
2023-03-22T03:58:03.813Z,8.57
2023-03-22T04:00:34.338Z,8.70
2023-03-22T04:03:04.897Z,8.40
2023-03-22T04:05:35.316Z,8.05
2023-03-22T04:08:05.767Z,8.45
2023-03-22T04:10:36.389Z,8.73
2023-03-22T04:13:08.566Z,8.50
2023-03-22T04:15:42.079Z,8.85
2023-03-22T04:18:13.301Z,8.18
2023-03-22T04:20:43.827Z,7.40
2023-03-22T04:23:14.168Z,7.85
2023-03-22T04:25:50.832Z,7.15
2023-03-22T04:28:22.852Z,7.88
2023-03-22T04:30:53.473Z,7.30
2023-03-22T04:33:23.980Z,7.18
2023-03-22T04:35:58.228Z,7.60
2023-03-22T04:38:28.788Z,6.68
2023-03-22T04:40:59.284Z,8.68
2023-03-22T04:43:31.071Z,7.57
2023-03-22T04:46:02.872Z,7.03
2023-03-22T04:48:33.490Z,7.43
2023-03-22T04:51:04.888Z,7.68
2023-03-22T04:53:39.502Z,7.55
2023-03-22T04:56:12.129Z,8.07
2023-03-22T04:58:45.553Z,8.32
2023-03-22T05:01:17.664Z,7.28
2023-03-22T05:03:48.470Z,8.30
2023-03-22T05:06:19.049Z,8.52
2023-03-22T05:08:49.490Z,7.80
2023-03-22T05:11:21.118Z,8.45
2023-03-22T05:13:53.429Z,8.18
2023-03-22T05:16:24.104Z,10.13
2023-03-22T05:18:55.286Z,9.93
2023-03-22T05:21:29.060Z,12.77
2023-03-22T05:24:00.569Z,12.25
2023-03-22T05:26:30.993Z,11.90
2023-03-22T05:29:02.960Z,9.07
2023-03-22T05:31:35.444Z,8.45
2023-03-22T05:34:06.354Z,10.70
2023-03-22T05:36:37.371Z,9.35
2023-03-22T05:39:08.140Z,10.52
2023-03-22T05:41:38.591Z,10.32
2023-03-22T05:44:10.736Z,13.02
2023-03-22T05:46:41.202Z,14.73
2023-03-22T05:49:12.228Z,9.77
2023-03-22T05:51:43.448Z,13.18
2023-03-22T05:54:14.179Z,11.00
2023-03-22T05:56:45.010Z,10.05
2023-03-22T05:59:17.063Z,12.32
2023-03-22T06:01:47.647Z,20.05
2023-03-22T06:04:19.293Z,12.93
2023-03-22T06:06:49.681Z,14.10
2023-03-22T06:09:20.124Z,15.63
2023-03-22T06:11:50.558Z,14.35
2023-03-22T06:14:22.599Z,9.77
2023-03-22T06:16:53.167Z,9.55
2023-03-22T06:19:23.718Z,8.02
2023-03-22T06:21:54.175Z,8.18
2023-03-22T06:24:24.780Z,7.53
2023-03-22T06:26:55.305Z,6.82
2023-03-22T06:29:27.492Z,7.63
2023-03-22T06:31:58.060Z,6.00
2023-03-22T06:34:28.610Z,6.68
2023-03-22T06:36:59.235Z,7.07
2023-03-22T06:39:30.074Z,6.50
2023-03-22T06:42:00.400Z,7.68
2023-03-22T06:44:32.825Z,7.22
2023-03-22T06:47:03.330Z,7.18
2023-03-22T06:49:33.807Z,7.20
2023-03-22T06:52:04.434Z,6.57
2023-03-22T06:54:34.943Z,6.68
2023-03-22T06:57:05.401Z,6.68
2023-03-22T06:59:37.500Z,6.72
2023-03-22T07:02:08.927Z,6.75
2023-03-22T07:04:39.453Z,7.05
2023-03-22T07:07:22.243Z,6.88
2023-03-22T07:09:53.708Z,7.13
2023-03-22T07:12:24.053Z,7.18
2023-03-22T07:14:56.197Z,7.13
2023-03-22T07:17:26.689Z,8.40
2023-03-22T07:19:57.118Z,7.80
2023-03-22T07:22:28.677Z,9.13
2023-03-22T07:25:01.610Z,7.50
2023-03-22T07:27:32.317Z,8.27
2023-03-22T07:30:04.379Z,9.15
2023-03-22T07:32:34.857Z,8.82
2023-03-22T07:35:05.289Z,8.45
2023-03-22T07:37:36.432Z,8.20
2023-03-22T07:40:07.798Z,9.25
2023-03-22T07:42:38.262Z,8.60
2023-03-22T07:45:11.321Z,8.30
2023-03-22T07:47:41.846Z,8.57
2023-03-22T07:50:13.295Z,8.98
2023-03-22T07:52:44.060Z,8.75
2023-03-22T07:55:16.454Z,8.70
2023-03-22T07:57:46.955Z,9.27
2023-03-22T08:00:20.371Z,9.10
2023-03-22T08:02:50.760Z,9.27
2023-03-22T08:05:21.448Z,8.70
2023-03-22T08:07:52.323Z,8.57
2023-03-22T08:10:27.327Z,8.55
2023-03-22T08:12:57.853Z,8.68
2023-03-22T08:15:29.973Z,9.15
2023-03-22T08:18:01.469Z,9.75
2023-03-22T08:20:32.221Z,9.40
2023-03-22T08:23:02.781Z,9.90
2023-03-22T08:25:36.048Z,10.52
2023-03-22T08:28:06.527Z,10.93
2023-03-22T08:30:41.702Z,11.10
2023-03-22T08:33:13.087Z,11.70
2023-03-22T08:35:44.130Z,11.05
2023-03-22T08:38:15.549Z,11.82
2023-03-22T08:40:49.458Z,12.82
2023-03-22T08:43:20.712Z,12.95
2023-03-22T08:45:53.565Z,12.50
2023-03-22T08:48:36.662Z,10.90
2023-03-22T08:51:07.929Z,11.60
2023-03-22T08:53:39.170Z,11.80
2023-03-22T08:56:10.850Z,12.43
2023-03-22T08:58:49.851Z,18.95
2023-03-22T09:01:25.560Z,43.03
2023-03-22T09:03:56.382Z,22.38
2023-03-22T09:06:29.519Z,14.60
2023-03-22T09:09:00.095Z,20.63
2023-03-22T09:11:37.414Z,14.70
2023-03-22T09:14:07.904Z,12.30
2023-03-22T09:16:42.614Z,13.82
2023-03-22T09:19:13.350Z,12.75
2023-03-22T09:21:45.364Z,11.75
2023-03-22T09:24:15.874Z,12.95
2023-03-22T09:26:48.899Z,12.38
2023-03-22T09:29:22.729Z,12.95
2023-03-22T09:31:58.327Z,11.65
2023-03-22T09:34:31.430Z,12.70
2023-03-22T09:37:03.300Z,13.07
2023-03-22T09:39:45.931Z,12.80
2023-03-22T09:42:28.240Z,13.23
2023-03-22T09:45:07.068Z,13.48
2023-03-22T09:47:44.979Z,13.73
2023-03-22T09:50:22.308Z,13.45
2023-03-22T09:52:53.548Z,13.50
2023-03-22T09:55:31.995Z,14.57
2023-03-22T09:58:10.336Z,13.77
2023-03-22T10:00:51.394Z,15.43
2023-03-22T10:03:46.178Z,17.88
2023-03-22T10:06:20.725Z,16.08
2023-03-22T10:09:05.822Z,15.15
2023-03-22T10:11:47.981Z,15.95
2023-03-22T10:14:32.629Z,16.05
2023-03-22T10:17:07.913Z,16.73
2023-03-22T10:19:52.746Z,16.95
2023-03-22T10:22:30.243Z,17.00
2023-03-22T10:25:07.752Z,16.75
2023-03-22T10:27:39.988Z,16.75
2023-03-22T10:30:27.047Z,17.10
2023-03-22T10:33:04.049Z,15.73
2023-03-22T10:35:45.371Z,16.65
2023-03-22T10:38:24.146Z,15.27
2023-03-22T10:44:44.077Z,15.48
2023-03-22T10:55:58.695Z,18.77
2023-03-22T10:58:42.543Z,19.67
2023-03-22T11:02:00.184Z,21.20
2023-03-22T11:04:34.302Z,21.13
2023-03-22T11:07:22.926Z,19.75
2023-03-22T11:10:33.080Z,18.27
2023-03-22T11:13:22.478Z,18.55
2023-03-22T11:16:02.167Z,16.13
2023-03-22T11:18:38.219Z,16.80
2023-03-22T11:21:13.727Z,15.82
2023-03-22T11:23:48.677Z,15.02
2023-03-22T11:26:30.956Z,14.90
2023-03-22T11:29:10.237Z,14.63
2023-03-22T11:32:04.444Z,14.80
2023-03-22T11:34:37.772Z,14.98
2023-03-22T11:37:15.739Z,14.45
2023-03-22T11:39:57.568Z,13.48
2023-03-22T11:42:38.333Z,14.05
2023-03-22T11:45:10.715Z,13.38
2023-03-22T11:47:41.805Z,13.27
2023-03-22T11:50:31.783Z,14.55
2023-03-22T11:55:40.556Z,14.05
2023-03-22T11:58:29.279Z,15.07
2023-03-22T12:01:04.160Z,16.05
2023-03-22T12:03:39.827Z,15.85
2023-03-22T12:06:23.614Z,14.23
2023-03-22T12:08:58.092Z,15.23
2023-03-22T12:11:38.988Z,14.82
2023-03-22T12:14:19.942Z,14.38
2023-03-22T12:16:54.175Z,14.70
2023-03-22T12:19:42.393Z,13.52
2023-03-22T12:22:19.483Z,14.13
2023-03-22T12:24:52.458Z,13.57
2023-03-22T12:27:38.934Z,13.57
2023-03-22T12:30:27.885Z,14.85
2023-03-22T12:33:04.105Z,16.73
2023-03-22T12:35:38.088Z,16.48
2023-03-22T12:38:17.631Z,16.77
2023-03-22T12:40:48.815Z,15.52
2023-03-22T12:43:30.604Z,16.85
2023-03-22T12:46:09.682Z,14.20
2023-03-22T12:48:47.835Z,14.20
2023-03-22T12:51:22.126Z,15.90
2023-03-22T12:53:57.983Z,18.42
2023-03-22T12:56:35.909Z,17.48
2023-03-22T12:59:08.816Z,15.90
2023-03-22T13:01:48.936Z,17.83
2023-03-22T13:04:51.856Z,16.50
2023-03-22T13:07:50.375Z,16.92
2023-03-22T13:10:52.320Z,15.73
2023-03-22T13:13:43.118Z,15.80
2023-03-22T13:16:44.974Z,15.77
2023-03-22T13:19:32.391Z,15.02
2023-03-22T13:22:25.219Z,14.63
2023-03-22T13:25:10.868Z,14.27
2023-03-22T13:27:48.377Z,13.40
2023-03-22T13:30:32.797Z,15.05
2023-03-22T13:33:15.048Z,15.20
2023-03-22T13:35:55.071Z,14.15
2023-03-22T13:38:28.128Z,14.10
2023-03-22T13:41:05.337Z,15.35
2023-03-22T13:43:38.886Z,14.95
2023-03-22T13:46:47.896Z,14.82
2023-03-22T13:49:45.383Z,14.75
2023-03-22T13:52:38.634Z,16.17
2023-03-22T13:55:41.186Z,15.85
2023-03-22T13:58:14.624Z,18.30
2023-03-22T14:00:57.997Z,17.35
2023-03-22T14:03:33.426Z,17.65
2023-03-22T14:06:16.294Z,18.55
2023-03-22T14:08:52.670Z,18.27
2023-03-22T14:11:31.859Z,18.02
2023-03-22T14:14:10.348Z,19.17
2023-03-22T14:16:44.972Z,17.92
2023-03-22T14:19:21.895Z,15.30
